Cottrellville Township, Michigan
Current Conditions -  °F | °C
As of 6:57 PM on Wednesday 26 Nov 2014 (Local Time) from KPHN Reporting Station
Overcast Overcast  
Wind Chill: 32°   Ceiling: 4500
Heat Index: 32°   Visibility: 10mi
Dew Point: 25°   Wind: 3mph
Humidity: 75%   Direction: 320°NW
Pressure: 30.09"   Gusts: NA
Location:  42.6968°N, 82.5536°W
Report Text: KPHN 262357Z AUTO 32003KT 10SM SCT035 OVC045 M00/M04 A3009 RMK AO2
Loading
Personal Weather Stations






























Interactive Weather Map New forecast layout! Learn more

10-Day Weather Forecast

Advertisements
Track Severe Weather on mobile